sensor_id;sensor_type;location;lat;lon;timestamp;pressure;altitude;pressure_sealevel;temperature;humidity
60427;BME280;46274;47.168;27.604;2023-04-19T00:05:40;99798.19;;;8.41;92.89
60427;BME280;46274;47.168;27.604;2023-04-19T00:12:17;99540.06;;;6.78;93.54
60427;BME280;46274;47.168;27.604;2023-04-19T00:25:10;99539.72;;;6.81;93.24
60427;BME280;46274;47.168;27.604;2023-04-19T00:39:45;99526.59;;;6.70;93.51
60427;BME280;46274;47.168;27.604;2023-04-19T00:46:46;99766.97;;;8.22;93.46
60427;BME280;46274;47.168;27.604;2023-04-19T00:52:47;99547.09;;;6.71;93.53
60427;BME280;46274;47.168;27.604;2023-04-19T01:13:22;99656.72;;;7.54;93.62
60427;BME280;46274;47.168;27.604;2023-04-19T01:19:41;99489.03;;;6.60;93.00
60427;BME280;46274;47.168;27.604;2023-04-19T01:26:05;99739.16;;;8.14;93.22
60427;BME280;46274;47.168;27.604;2023-04-19T01:47:39;99606.16;;;7.39;93.30
60427;BME280;46274;47.168;27.604;2023-04-19T01:53:55;99478.81;;;6.64;92.94
60427;BME280;46274;47.168;27.604;2023-04-19T02:00:05;99570.44;;;7.37;92.22
60427;BME280;46274;47.168;27.604;2023-04-19T02:06:21;99557.31;;;7.18;92.38
60427;BME280;46274;47.168;27.604;2023-04-19T02:13:48;99512.16;;;6.87;92.46
60427;BME280;46274;47.168;27.604;2023-04-19T02:20:16;99459.06;;;6.47;92.59
60427;BME280;46274;47.168;27.604;2023-04-19T02:26:46;99599.91;;;7.39;92.55
60427;BME280;46274;47.168;27.604;2023-04-19T02:33:08;99604.81;;;7.43;92.67
60427;BME280;46274;47.168;27.604;2023-04-19T02:39:24;99684.34;;;7.89;92.73
60427;BME280;46274;47.168;27.604;2023-04-19T02:45:35;99448.16;;;6.48;92.72
60427;BME280;46274;47.168;27.604;2023-04-19T02:51:58;99589.28;;;7.37;92.44
60427;BME280;46274;47.168;27.604;2023-04-19T02:58:22;99529.97;;;6.96;92.30
60427;BME280;46274;47.168;27.604;2023-04-19T03:04:43;99606.63;;;7.43;92.37
60427;BME280;46274;47.168;27.604;2023-04-19T03:10:49;99668.66;;;7.84;92.01
60427;BME280;46274;47.168;27.604;2023-04-19T03:16:52;99631.25;;;7.73;91.55
60427;BME280;46274;47.168;27.604;2023-04-19T03:23:07;99571.25;;;7.21;92.28
60427;BME280;46274;47.168;27.604;2023-04-19T03:29:09;99674.06;;;7.92;91.96
60427;BME280;46274;47.168;27.604;2023-04-19T03:35:11;99673.41;;;7.90;91.51
60427;BME280;46274;47.168;27.604;2023-04-19T03:51:55;99590.47;;;7.76;90.51
60427;BME280;46274;47.168;27.604;2023-04-19T03:58:03;99652.66;;;7.91;90.77
60427;BME280;46274;47.168;27.604;2023-04-19T04:04:18;99660.91;;;7.97;90.87
60427;BME280;46274;47.168;27.604;2023-04-19T04:10:22;99645.22;;;7.76;91.10
60427;BME280;46274;47.168;27.604;2023-04-19T04:16:32;99420.03;;;6.43;91.11
60427;BME280;46274;47.168;27.604;2023-04-19T04:22:35;99416.16;;;6.45;91.38
60427;BME280;46274;47.168;27.604;2023-04-19T04:29:05;99412.47;;;6.38;91.26
60427;BME280;46274;47.168;27.604;2023-04-19T04:35:17;99674.22;;;7.99;91.51
60427;BME280;46274;47.168;27.604;2023-04-19T04:41:40;99515.00;;;7.02;91.49
60427;BME280;46274;47.168;27.604;2023-04-19T04:47:42;99477.28;;;6.77;91.49
60427;BME280;46274;47.168;27.604;2023-04-19T04:53:53;99549.03;;;7.28;91.83
60427;BME280;46274;47.168;27.604;2023-04-19T04:59:56;99599.41;;;7.60;91.45
60427;BME280;46274;47.168;27.604;2023-04-19T05:05:58;99673.22;;;8.08;91.43
60427;BME280;46274;47.168;27.604;2023-04-19T05:12:00;99626.34;;;7.84;91.45
60427;BME280;46274;47.168;27.604;2023-04-19T05:18:02;99667.81;;;8.08;91.29
60427;BME280;46274;47.168;27.604;2023-04-19T05:24:08;99668.47;;;8.10;91.52
60427;BME280;46274;47.168;27.604;2023-04-19T05:30:11;99628.03;;;7.94;91.70
60427;BME280;46274;47.168;27.604;2023-04-19T05:36:22;99656.84;;;8.18;92.49
60427;BME280;46274;47.168;27.604;2023-04-19T05:42:58;99600.06;;;7.86;91.72
60427;BME280;46274;47.168;27.604;2023-04-19T05:49:04;99405.78;;;6.75;91.77
60427;BME280;46274;47.168;27.604;2023-04-19T05:55:08;99654.66;;;8.21;91.67
60427;BME280;46274;47.168;27.604;2023-04-19T06:01:34;99657.66;;;8.35;91.69
60427;BME280;46274;47.168;27.604;2023-04-19T06:07:46;99453.06;;;7.02;91.04
60427;BME280;46274;47.168;27.604;2023-04-19T06:14:21;99643.31;;;8.26;91.04
60427;BME280;46274;47.168;27.604;2023-04-19T06:20:25;99658.69;;;8.42;90.51
60427;BME280;46274;47.168;27.604;2023-04-19T06:26:37;99562.28;;;8.03;90.49
60427;BME280;46274;47.168;27.604;2023-04-19T06:39:39;99528.25;;;7.85;89.39
60427;BME280;46274;47.168;27.604;2023-04-19T06:46:04;99661.38;;;8.50;88.69
60427;BME280;46274;47.168;27.604;2023-04-19T06:52:57;99658.81;;;8.48;88.47
60427;BME280;46274;47.168;27.604;2023-04-19T06:59:20;99402.88;;;7.09;88.50
60427;BME280;46274;47.168;27.604;2023-04-19T07:05:47;99655.41;;;8.63;88.88
60427;BME280;46274;47.168;27.604;2023-04-19T07:12:15;99570.84;;;8.15;88.63
60427;BME280;46274;47.168;27.604;2023-04-19T07:18:52;99598.63;;;8.40;88.30
60427;BME280;46274;47.168;27.604;2023-04-19T07:25:18;99472.31;;;7.71;88.79
60427;BME280;46274;47.168;27.604;2023-04-19T07:31:27;99589.81;;;8.38;87.91
60427;BME280;46274;47.168;27.604;2023-04-19T07:38:10;99442.75;;;7.47;87.42
60427;BME280;46274;47.168;27.604;2023-04-19T07:44:35;99677.09;;;8.86;86.56
60427;BME280;46274;47.168;27.604;2023-04-19T07:50:40;99603.31;;;8.38;86.10
60427;BME280;46274;47.168;27.604;2023-04-19T07:56:50;99521.81;;;7.95;85.15
60427;BME280;46274;47.168;27.604;2023-04-19T08:02:52;99515.91;;;7.99;84.86
60427;BME280;46274;47.168;27.604;2023-04-19T08:09:39;99375.78;;;7.19;84.95
60427;BME280;46274;47.168;27.604;2023-04-19T08:15:42;99599.50;;;8.71;85.42
60427;BME280;46274;47.168;27.604;2023-04-19T08:22:19;99674.22;;;9.18;83.87
60427;BME280;46274;47.168;27.604;2023-04-19T08:29:02;99665.78;;;9.22;82.91
60427;BME280;46274;47.168;27.604;2023-04-19T08:42:36;99596.06;;;8.86;82.16
60427;BME280;46274;47.168;27.604;2023-04-19T08:49:20;99676.84;;;9.35;81.77
60427;BME280;46274;47.168;27.604;2023-04-19T08:55:37;99414.22;;;8.08;81.79
60427;BME280;46274;47.168;27.604;2023-04-19T09:09:27;99670.38;;;9.90;81.01
60427;BME280;46274;47.168;27.604;2023-04-19T09:15:41;99669.38;;;10.06;79.91
60427;BME280;46274;47.168;27.604;2023-04-19T09:22:15;99663.72;;;10.16;81.05
60427;BME280;46274;47.168;27.604;2023-04-19T09:29:16;99657.16;;;10.48;79.64
60427;BME280;46274;47.168;27.604;2023-04-19T09:35:58;99667.03;;;10.56;77.99
60427;BME280;46274;47.168;27.604;2023-04-19T09:42:12;99429.34;;;9.32;78.35
60427;BME280;46274;47.168;27.604;2023-04-19T09:49:33;99442.69;;;9.49;78.72
60427;BME280;46274;47.168;27.604;2023-04-19T09:55:54;99662.63;;;11.14;78.13
60427;BME280;46274;47.168;27.604;2023-04-19T10:02:33;99594.25;;;10.82;78.11
60427;BME280;46274;47.168;27.604;2023-04-19T10:08:38;99434.94;;;10.20;78.09
60427;BME280;46274;47.168;27.604;2023-04-19T10:14:47;99530.91;;;11.48;77.83
60427;BME280;46274;47.168;27.604;2023-04-19T10:21:20;99555.00;;;11.86;78.70
60427;BME280;46274;47.168;27.604;2023-04-19T10:27:35;99655.25;;;12.37;75.82
60427;BME280;46274;47.168;27.604;2023-04-19T10:33:51;99543.00;;;11.73;75.46
60427;BME280;46274;47.168;27.604;2023-04-19T10:40:52;99451.84;;;11.51;74.62
60427;BME280;46274;47.168;27.604;2023-04-19T11:00:23;99576.25;;;10.75;72.12
60427;BME280;46274;47.168;27.604;2023-04-19T11:14:07;99685.34;;;11.13;73.84
60427;BME280;46274;47.168;27.604;2023-04-19T11:20:27;99698.78;;;11.36;73.72
60427;BME280;46274;47.168;27.604;2023-04-19T11:27:29;99603.66;;;11.59;75.27
60427;BME280;46274;47.168;27.604;2023-04-19T11:34:06;99551.31;;;11.65;73.92
60427;BME280;46274;47.168;27.604;2023-04-19T11:40:41;99601.66;;;11.46;74.80
60427;BME280;46274;47.168;27.604;2023-04-19T11:53:52;99465.41;;;11.01;74.64
60427;BME280;46274;47.168;27.604;2023-04-19T12:07:09;99434.44;;;10.46;73.82
60427;BME280;46274;47.168;27.604;2023-04-19T12:13:31;99598.84;;;11.18;73.85
60427;BME280;46274;47.168;27.604;2023-04-19T12:19:47;99558.09;;;11.33;72.59
60427;BME280;46274;47.168;27.604;2023-04-19T12:25:53;99631.50;;;12.17;74.77
60427;BME280;46274;47.168;27.604;2023-04-19T12:32:04;99594.63;;;11.58;76.00
60427;BME280;46274;47.168;27.604;2023-04-19T12:38:43;99463.53;;;11.02;75.10
60427;BME280;46274;47.168;27.604;2023-04-19T12:44:56;99660.94;;;11.92;75.48
60427;BME280;46274;47.168;27.604;2023-04-19T12:51:42;99447.81;;;10.69;75.08
60427;BME280;46274;47.168;27.604;2023-04-19T12:58:25;99593.53;;;11.74;75.24
60427;BME280;46274;47.168;27.604;2023-04-19T13:04:49;99586.00;;;11.70;74.66
60427;BME280;46274;47.168;27.604;2023-04-19T13:11:14;99442.38;;;10.90;74.40
60427;BME280;46274;47.168;27.604;2023-04-19T13:17:59;99582.16;;;11.86;73.58
60427;BME280;46274;47.168;27.604;2023-04-19T13:24:15;99587.75;;;11.84;75.46
60427;BME280;46274;47.168;27.604;2023-04-19T13:38:16;99573.69;;;11.74;73.98
60427;BME280;46274;47.168;27.604;2023-04-19T13:57:22;99642.84;;;12.56;72.96
60427;BME280;46274;47.168;27.604;2023-04-19T14:10:54;99497.13;;;11.78;72.89
60427;BME280;46274;47.168;27.604;2023-04-19T14:17:05;99636.66;;;13.17;73.94
60427;BME280;46274;47.168;27.604;2023-04-19T14:23:26;99457.81;;;11.68;74.15
60427;BME280;46274;47.168;27.604;2023-04-19T14:29:51;99614.13;;;12.88;72.79
60427;BME280;46274;47.168;27.604;2023-04-19T14:43:38;99571.59;;;12.60;73.72
60427;BME280;46274;47.168;27.604;2023-04-19T14:57:05;99407.81;;;11.49;73.15
60427;BME280;46274;47.168;27.604;2023-04-19T15:03:35;99630.00;;;12.43;73.54
60427;BME280;46274;47.168;27.604;2023-04-19T15:10:17;99409.81;;;11.12;72.75
60427;BME280;46274;47.168;27.604;2023-04-19T15:16:19;99613.94;;;12.13;74.56
60427;BME280;46274;47.168;27.604;2023-04-19T15:22:54;99628.59;;;12.19;73.79
60427;BME280;46274;47.168;27.604;2023-04-19T15:29:33;99424.88;;;10.93;74.75
60427;BME280;46274;47.168;27.604;2023-04-19T15:36:31;99634.44;;;12.16;74.79
60427;BME280;46274;47.168;27.604;2023-04-19T15:43:08;99549.13;;;11.54;73.63
60427;BME280;46274;47.168;27.604;2023-04-19T15:49:45;99544.34;;;11.34;74.02
60427;BME280;46274;47.168;27.604;2023-04-19T15:56:24;99618.19;;;11.79;73.77
60427;BME280;46274;47.168;27.604;2023-04-19T16:03:05;99431.84;;;10.59;74.58
60427;BME280;46274;47.168;27.604;2023-04-19T16:09:34;99557.13;;;10.98;73.79
60427;BME280;46274;47.168;27.604;2023-04-19T16:15:52;99400.22;;;10.09;74.01
60427;BME280;46274;47.168;27.604;2023-04-19T16:22:31;99417.59;;;9.99;75.13
60427;BME280;46274;47.168;27.604;2023-04-19T16:29:03;99439.69;;;10.18;75.58
60427;BME280;46274;47.168;27.604;2023-04-19T16:35:44;99359.25;;;9.60;75.74
60427;BME280;46274;47.168;27.604;2023-04-19T16:42:09;99622.03;;;11.21;76.17
60427;BME280;46274;47.168;27.604;2023-04-19T17:01:45;99494.47;;;10.05;76.60
60427;BME280;46274;47.168;27.604;2023-04-19T17:08:21;99563.66;;;10.37;76.49
60427;BME280;46274;47.168;27.604;2023-04-19T17:14:35;99612.13;;;10.62;76.85
60427;BME280;46274;47.168;27.604;2023-04-19T17:21:23;99460.97;;;9.61;76.81
60427;BME280;46274;47.168;27.604;2023-04-19T17:27:35;99429.22;;;9.26;76.95
60427;BME280;46274;47.168;27.604;2023-04-19T17:34:09;99381.53;;;8.95;77.35
60427;BME280;46274;47.168;27.604;2023-04-19T17:40:36;99516.75;;;9.63;77.26
60427;BME280;46274;47.168;27.604;2023-04-19T17:46:38;99661.53;;;10.49;77.69
60427;BME280;46274;47.168;27.604;2023-04-19T17:52:58;99420.88;;;8.98;77.75
60427;BME280;46274;47.168;27.604;2023-04-19T17:59:38;99576.69;;;9.89;77.67
60427;BME280;46274;47.168;27.604;2023-04-19T18:05:48;99592.00;;;9.97;78.26
60427;BME280;46274;47.168;27.604;2023-04-19T18:12:10;99520.94;;;9.50;78.33
60427;BME280;46274;47.168;27.604;2023-04-19T18:18:32;99522.78;;;9.50;78.24
60427;BME280;46274;47.168;27.604;2023-04-19T18:25:05;99608.31;;;9.89;78.47
60427;BME280;46274;47.168;27.604;2023-04-19T18:31:20;99439.72;;;8.83;78.76
60427;BME280;46274;47.168;27.604;2023-04-19T18:37:33;99644.94;;;9.99;78.73
60427;BME280;46274;47.168;27.604;2023-04-19T18:51:05;99429.06;;;8.66;78.95
60427;BME280;46274;47.168;27.604;2023-04-19T18:57:25;99547.56;;;9.38;79.18
60427;BME280;46274;47.168;27.604;2023-04-19T19:03:40;99690.78;;;10.16;79.98
60427;BME280;46274;47.168;27.604;2023-04-19T19:10:26;99689.13;;;10.15;80.13
60427;BME280;46274;47.168;27.604;2023-04-19T19:17:40;99429.06;;;8.66;80.29
60427;BME280;46274;47.168;27.604;2023-04-19T19:24:01;99677.31;;;10.08;80.97
60427;BME280;46274;47.168;27.604;2023-04-19T19:30:09;99543.34;;;9.36;80.95
60427;BME280;46274;47.168;27.604;2023-04-19T19:36:19;99652.69;;;10.02;80.95
60427;BME280;46274;47.168;27.604;2023-04-19T19:42:41;99563.69;;;9.47;80.93
60427;BME280;46274;47.168;27.604;2023-04-19T19:49:18;99562.88;;;9.46;80.67
60427;BME280;46274;47.168;27.604;2023-04-19T19:55:54;99577.06;;;9.48;80.71
60427;BME280;46274;47.168;27.604;2023-04-19T20:02:36;99507.25;;;9.06;80.85
60427;BME280;46274;47.168;27.604;2023-04-19T20:09:34;99435.53;;;8.57;80.60
60427;BME280;46274;47.168;27.604;2023-04-19T20:22:39;99397.72;;;8.26;81.01
60427;BME280;46274;47.168;27.604;2023-04-19T20:29:14;99630.00;;;9.66;81.43
60427;BME280;46274;47.168;27.604;2023-04-19T20:35:54;99381.16;;;8.06;81.87
60427;BME280;46274;47.168;27.604;2023-04-19T20:42:37;99665.34;;;9.64;82.56
60427;BME280;46274;47.168;27.604;2023-04-19T20:48:52;99408.81;;;8.08;82.30
60427;BME280;46274;47.168;27.604;2023-04-19T20:55:11;99560.88;;;8.94;82.85
60427;BME280;46274;47.168;27.604;2023-04-19T21:02:21;99456.56;;;8.30;83.22
60427;BME280;46274;47.168;27.604;2023-04-19T21:08:41;99563.41;;;8.95;83.18
60427;BME280;46274;47.168;27.604;2023-04-19T21:15:28;99570.34;;;8.90;84.14
60427;BME280;46274;47.168;27.604;2023-04-19T21:22:00;99581.31;;;8.97;84.00
60427;BME280;46274;47.168;27.604;2023-04-19T21:28:25;99418.28;;;8.04;83.78
60427;BME280;46274;47.168;27.604;2023-04-19T21:34:55;99489.94;;;8.46;84.71
60427;BME280;46274;47.168;27.604;2023-04-19T21:42:05;99649.56;;;9.45;85.01
60427;BME280;46274;47.168;27.604;2023-04-19T21:48:45;99388.63;;;7.96;84.70
60427;BME280;46274;47.168;27.604;2023-04-19T21:55:23;99396.41;;;7.91;85.21
60427;BME280;46274;47.168;27.604;2023-04-19T22:01:58;99399.75;;;8.01;85.21
60427;BME280;46274;47.168;27.604;2023-04-19T22:08:19;99508.25;;;8.59;85.41
60427;BME280;46274;47.168;27.604;2023-04-19T22:15:04;99425.66;;;8.10;85.30
60427;BME280;46274;47.168;27.604;2023-04-19T22:21:30;99646.88;;;9.45;85.99
60427;BME280;46274;47.168;27.604;2023-04-19T22:27:49;99567.66;;;8.90;85.67
60427;BME280;46274;47.168;27.604;2023-04-19T22:34:13;99561.63;;;8.80;86.19
60427;BME280;46274;47.168;27.604;2023-04-19T22:48:31;99542.63;;;8.73;86.90
60427;BME280;46274;47.168;27.604;2023-04-19T22:54:50;99379.09;;;7.77;86.35
60427;BME280;46274;47.168;27.604;2023-04-19T23:08:40;99631.66;;;9.44;87.22
60427;BME280;46274;47.168;27.604;2023-04-19T23:15:08;99419.41;;;8.09;86.80
60427;BME280;46274;47.168;27.604;2023-04-19T23:21:37;99630.91;;;9.35;86.85
60427;BME280;46274;47.168;27.604;2023-04-19T23:28:38;99548.38;;;8.93;87.37
60427;BME280;46274;47.168;27.604;2023-04-19T23:35:02;99565.34;;;9.10;87.37
60427;BME280;46274;47.168;27.604;2023-04-19T23:41:21;99384.91;;;7.97;87.18
60427;BME280;46274;47.168;27.604;2023-04-19T23:47:54;99534.25;;;8.91;87.82
60427;BME280;46274;47.168;27.604;2023-04-19T23:55:11;99365.59;;;7.85;87.67
